sensor_id;sensor_type;location;lat;lon;timestamp;pressure;altitude;pressure_sealevel;temperature;humidity
32873;BME280;19224;52.462;16.898;2023-04-23T00:00:16;99745.75;;;13.64;66.91
32873;BME280;19224;52.462;16.898;2023-04-23T00:02:50;99743.51;;;13.63;66.77
32873;BME280;19224;52.462;16.898;2023-04-23T00:05:20;99746.42;;;13.60;67.00
32873;BME280;19224;52.462;16.898;2023-04-23T00:07:52;99741.31;;;13.49;67.98
32873;BME280;19224;52.462;16.898;2023-04-23T00:10:23;99736.11;;;13.46;68.08
32873;BME280;19224;52.462;16.898;2023-04-23T00:12:54;99736.16;;;13.39;68.32
32873;BME280;19224;52.462;16.898;2023-04-23T00:15:25;99732.73;;;13.42;68.24
32873;BME280;19224;52.462;16.898;2023-04-23T00:17:56;99731.30;;;13.44;68.15
32873;BME280;19224;52.462;16.898;2023-04-23T00:20:26;99736.03;;;13.40;68.15
32873;BME280;19224;52.462;16.898;2023-04-23T00:22:56;99728.13;;;13.37;68.33
32873;BME280;19224;52.462;16.898;2023-04-23T00:25:26;99725.04;;;13.36;68.28
32873;BME280;19224;52.462;16.898;2023-04-23T00:27:56;99719.04;;;13.31;68.41
32873;BME280;19224;52.462;16.898;2023-04-23T00:30:26;99721.58;;;13.27;68.46
32873;BME280;19224;52.462;16.898;2023-04-23T00:32:56;99720.13;;;13.22;68.79
32873;BME280;19224;52.462;16.898;2023-04-23T00:35:26;99715.31;;;13.20;68.90
32873;BME280;19224;52.462;16.898;2023-04-23T00:37:56;99709.91;;;13.13;69.63
32873;BME280;19224;52.462;16.898;2023-04-23T00:40:27;99711.84;;;13.11;69.70
32873;BME280;19224;52.462;16.898;2023-04-23T00:42:58;99704.62;;;13.11;69.55
32873;BME280;19224;52.462;16.898;2023-04-23T00:45:29;99705.17;;;13.09;69.57
32873;BME280;19224;52.462;16.898;2023-04-23T00:48:00;99700.73;;;13.08;69.56
32873;BME280;19224;52.462;16.898;2023-04-23T00:50:32;99699.78;;;12.95;70.30
32873;BME280;19224;52.462;16.898;2023-04-23T00:53:03;99692.44;;;12.97;69.80
32873;BME280;19224;52.462;16.898;2023-04-23T00:55:34;99691.09;;;12.97;70.17
32873;BME280;19224;52.462;16.898;2023-04-23T00:58:05;99689.16;;;12.99;70.02
32873;BME280;19224;52.462;16.898;2023-04-23T01:00:39;99687.42;;;12.98;70.02
32873;BME280;19224;52.462;16.898;2023-04-23T01:03:10;99689.36;;;13.03;69.69
32873;BME280;19224;52.462;16.898;2023-04-23T01:05:42;99688.09;;;13.02;69.62
32873;BME280;19224;52.462;16.898;2023-04-23T01:08:15;99687.63;;;13.02;69.73
32873;BME280;19224;52.462;16.898;2023-04-23T01:10:47;99681.25;;;12.96;70.37
32873;BME280;19224;52.462;16.898;2023-04-23T01:13:19;99682.39;;;12.92;70.22
32873;BME280;19224;52.462;16.898;2023-04-23T01:15:50;99681.04;;;12.92;70.39
32873;BME280;19224;52.462;16.898;2023-04-23T01:18:22;99675.42;;;12.88;70.52
32873;BME280;19224;52.462;16.898;2023-04-23T01:20:53;99679.09;;;12.87;70.67
32873;BME280;19224;52.462;16.898;2023-04-23T01:23:24;99679.01;;;12.89;70.46
32873;BME280;19224;52.462;16.898;2023-04-23T01:25:55;99682.59;;;12.89;70.57
32873;BME280;19224;52.462;16.898;2023-04-23T01:28:27;99676.31;;;12.89;70.48
32873;BME280;19224;52.462;16.898;2023-04-23T01:30:59;99680.83;;;12.88;70.59
32873;BME280;19224;52.462;16.898;2023-04-23T01:33:30;99676.51;;;12.86;70.52
32873;BME280;19224;52.462;16.898;2023-04-23T01:36:02;99674.86;;;12.83;70.77
32873;BME280;19224;52.462;16.898;2023-04-23T01:38:35;99676.04;;;12.79;71.11
32873;BME280;19224;52.462;16.898;2023-04-23T01:41:06;99667.93;;;12.79;71.22
32873;BME280;19224;52.462;16.898;2023-04-23T01:43:36;99669.45;;;12.76;71.43
32873;BME280;19224;52.462;16.898;2023-04-23T01:46:06;99669.19;;;12.74;71.48
32873;BME280;19224;52.462;16.898;2023-04-23T01:48:38;99656.34;;;12.70;71.42
32873;BME280;19224;52.462;16.898;2023-04-23T01:51:08;99662.34;;;12.68;71.36
32873;BME280;19224;52.462;16.898;2023-04-23T01:53:38;99662.62;;;12.64;71.83
32873;BME280;19224;52.462;16.898;2023-04-23T01:56:09;99662.13;;;12.50;72.88
32873;BME280;19224;52.462;16.898;2023-04-23T01:58:41;99665.80;;;12.49;72.20
32873;BME280;19224;52.462;16.898;2023-04-23T02:01:11;99660.67;;;12.59;71.59
32873;BME280;19224;52.462;16.898;2023-04-23T02:03:42;99664.44;;;12.42;72.71
32873;BME280;19224;52.462;16.898;2023-04-23T02:06:13;99656.53;;;12.25;73.96
32873;BME280;19224;52.462;16.898;2023-04-23T02:08:43;99657.66;;;12.21;74.29
32873;BME280;19224;52.462;16.898;2023-04-23T02:11:14;99662.11;;;12.29;73.59
32873;BME280;19224;52.462;16.898;2023-04-23T02:13:44;99653.83;;;12.39;72.76
32873;BME280;19224;52.462;16.898;2023-04-23T02:16:14;99664.27;;;12.45;72.46
32873;BME280;19224;52.462;16.898;2023-04-23T02:18:45;99649.98;;;12.50;72.20
32873;BME280;19224;52.462;16.898;2023-04-23T02:21:15;99656.73;;;12.50;72.23
32873;BME280;19224;52.462;16.898;2023-04-23T02:23:45;99648.63;;;12.50;72.06
32873;BME280;19224;52.462;16.898;2023-04-23T02:26:16;99658.27;;;12.40;72.96
32873;BME280;19224;52.462;16.898;2023-04-23T02:28:47;99650.93;;;12.42;72.96
32873;BME280;19224;52.462;16.898;2023-04-23T02:31:18;99650.75;;;12.38;72.98
32873;BME280;19224;52.462;16.898;2023-04-23T02:33:48;99661.63;;;12.37;73.07
32873;BME280;19224;52.462;16.898;2023-04-23T02:36:19;99654.59;;;12.41;73.00
32873;BME280;19224;52.462;16.898;2023-04-23T02:38:49;99660.97;;;12.40;72.99
32873;BME280;19224;52.462;16.898;2023-04-23T02:41:20;99656.33;;;12.28;73.91
32873;BME280;19224;52.462;16.898;2023-04-23T02:43:50;99653.83;;;12.25;74.09
32873;BME280;19224;52.462;16.898;2023-04-23T02:46:20;99648.41;;;12.18;74.60
32873;BME280;19224;52.462;16.898;2023-04-23T02:48:50;99654.19;;;12.19;74.56
32873;BME280;19224;52.462;16.898;2023-04-23T02:51:20;99644.00;;;12.24;74.19
32873;BME280;19224;52.462;16.898;2023-04-23T02:53:51;99651.33;;;12.22;74.53
32873;BME280;19224;52.462;16.898;2023-04-23T02:56:21;99656.73;;;12.22;74.74
32873;BME280;19224;52.462;16.898;2023-04-23T02:58:51;99654.68;;;12.26;74.33
32873;BME280;19224;52.462;16.898;2023-04-23T03:01:24;99651.13;;;12.25;74.42
32873;BME280;19224;52.462;16.898;2023-04-23T03:03:55;99649.02;;;12.23;74.51
32873;BME280;19224;52.462;16.898;2023-04-23T03:06:26;99654.77;;;12.17;75.19
32873;BME280;19224;52.462;16.898;2023-04-23T03:08:56;99643.41;;;12.12;75.79
32873;BME280;19224;52.462;16.898;2023-04-23T03:11:27;99640.78;;;12.11;75.98
32873;BME280;19224;52.462;16.898;2023-04-23T03:13:57;99643.56;;;12.09;76.38
32873;BME280;19224;52.462;16.898;2023-04-23T03:16:29;99645.19;;;12.05;76.93
32873;BME280;19224;52.462;16.898;2023-04-23T03:19:00;99641.84;;;12.01;77.25
32873;BME280;19224;52.462;16.898;2023-04-23T03:21:30;99637.35;;;11.87;78.37
32873;BME280;19224;52.462;16.898;2023-04-23T03:24:01;99635.45;;;11.95;77.51
32873;BME280;19224;52.462;16.898;2023-04-23T03:26:32;99631.70;;;11.98;77.32
32873;BME280;19224;52.462;16.898;2023-04-23T03:29:02;99636.22;;;11.97;77.42
32873;BME280;19224;52.462;16.898;2023-04-23T03:31:34;99631.98;;;11.93;77.64
32873;BME280;19224;52.462;16.898;2023-04-23T03:34:04;99631.59;;;11.93;77.99
32873;BME280;19224;52.462;16.898;2023-04-23T03:36:35;99631.02;;;11.94;77.89
32873;BME280;19224;52.462;16.898;2023-04-23T03:39:05;99633.33;;;11.93;77.77
32873;BME280;19224;52.462;16.898;2023-04-23T03:41:36;99632.56;;;11.92;78.19
32873;BME280;19224;52.462;16.898;2023-04-23T03:44:06;99636.42;;;11.94;77.86
32873;BME280;19224;52.462;16.898;2023-04-23T03:46:37;99639.70;;;11.93;78.35
32873;BME280;19224;52.462;16.898;2023-04-23T03:49:07;99634.87;;;11.91;78.29
32873;BME280;19224;52.462;16.898;2023-04-23T03:51:37;99633.99;;;11.90;78.65
32873;BME280;19224;52.462;16.898;2023-04-23T03:54:08;99630.61;;;11.87;78.70
32873;BME280;19224;52.462;16.898;2023-04-23T03:56:38;99634.27;;;11.86;79.36
32873;BME280;19224;52.462;16.898;2023-04-23T03:59:08;99628.77;;;11.80;79.97
32873;BME280;19224;52.462;16.898;2023-04-23T04:01:39;99631.58;;;11.79;80.58
32873;BME280;19224;52.462;16.898;2023-04-23T04:04:09;99630.69;;;11.78;80.72
32873;BME280;19224;52.462;16.898;2023-04-23T04:06:39;99625.56;;;11.74;81.13
32873;BME280;19224;52.462;16.898;2023-04-23T04:09:10;99631.73;;;11.76;81.21
32873;BME280;19224;52.462;16.898;2023-04-23T04:11:40;99626.72;;;11.77;81.72
32873;BME280;19224;52.462;16.898;2023-04-23T04:14:11;99631.73;;;11.76;81.66
32873;BME280;19224;52.462;16.898;2023-04-23T04:16:42;99630.77;;;11.77;81.59
32873;BME280;19224;52.462;16.898;2023-04-23T04:19:13;99634.27;;;11.79;81.90
32873;BME280;19224;52.462;16.898;2023-04-23T04:21:43;99634.13;;;11.66;82.69
32873;BME280;19224;52.462;16.898;2023-04-23T04:24:13;99632.70;;;11.68;82.04
32873;BME280;19224;52.462;16.898;2023-04-23T04:26:45;99629.03;;;11.69;82.00
32873;BME280;19224;52.462;16.898;2023-04-23T04:29:15;99627.30;;;11.75;81.89
32873;BME280;19224;52.462;16.898;2023-04-23T04:31:47;99629.61;;;11.74;81.75
32873;BME280;19224;52.462;16.898;2023-04-23T04:34:17;99625.30;;;11.78;81.81
32873;BME280;19224;52.462;16.898;2023-04-23T04:36:48;99628.68;;;11.82;81.71
32873;BME280;19224;52.462;16.898;2023-04-23T04:39:20;99625.79;;;11.85;82.02
32873;BME280;19224;52.462;16.898;2023-04-23T04:41:51;99622.70;;;11.84;82.25
32873;BME280;19224;52.462;16.898;2023-04-23T04:44:22;99632.34;;;11.81;82.65
32873;BME280;19224;52.462;16.898;2023-04-23T04:46:53;99626.48;;;11.88;82.01
32873;BME280;19224;52.462;16.898;2023-04-23T04:49:23;99626.20;;;11.93;81.77
32873;BME280;19224;52.462;16.898;2023-04-23T04:51:54;99624.86;;;11.93;81.88
32873;BME280;19224;52.462;16.898;2023-04-23T04:54:24;99623.12;;;11.92;82.08
32873;BME280;19224;52.462;16.898;2023-04-23T04:56:55;99631.79;;;11.96;82.24
32873;BME280;19224;52.462;16.898;2023-04-23T04:59:26;99624.84;;;11.99;81.82
32873;BME280;19224;52.462;16.898;2023-04-23T05:01:56;99620.53;;;11.97;82.52
32873;BME280;19224;52.462;16.898;2023-04-23T05:04:27;99624.45;;;11.98;82.48
32873;BME280;19224;52.462;16.898;2023-04-23T05:06:58;99619.42;;;11.86;83.85
32873;BME280;19224;52.462;16.898;2023-04-23T05:09:28;99612.71;;;11.93;83.43
32873;BME280;19224;52.462;16.898;2023-04-23T05:11:59;99622.25;;;12.05;82.75
32873;BME280;19224;52.462;16.898;2023-04-23T05:14:29;99614.30;;;12.24;81.45
32873;BME280;19224;52.462;16.898;2023-04-23T05:17:00;99614.49;;;12.35;80.91
32873;BME280;19224;52.462;16.898;2023-04-23T05:19:30;99610.61;;;12.32;81.23
32873;BME280;19224;52.462;16.898;2023-04-23T05:22:01;99608.02;;;12.45;80.43
32873;BME280;19224;52.462;16.898;2023-04-23T05:24:31;99605.80;;;12.58;79.36
32873;BME280;19224;52.462;16.898;2023-04-23T05:27:02;99601.16;;;12.67;78.76
32873;BME280;19224;52.462;16.898;2023-04-23T05:29:32;99603.66;;;12.77;78.45
32873;BME280;19224;52.462;16.898;2023-04-23T05:32:02;99600.34;;;12.86;77.88
32873;BME280;19224;52.462;16.898;2023-04-23T05:34:33;99603.08;;;12.79;78.40
32873;BME280;19224;52.462;16.898;2023-04-23T05:37:03;99608.06;;;12.85;78.52
32873;BME280;19224;52.462;16.898;2023-04-23T05:39:35;99610.77;;;12.99;77.90
32873;BME280;19224;52.462;16.898;2023-04-23T05:42:05;99607.66;;;13.12;76.93
32873;BME280;19224;52.462;16.898;2023-04-23T05:44:36;99605.05;;;13.11;78.08
32873;BME280;19224;52.462;16.898;2023-04-23T05:47:07;99604.73;;;13.22;77.66
32873;BME280;19224;52.462;16.898;2023-04-23T05:49:37;99605.07;;;13.30;76.75
32873;BME280;19224;52.462;16.898;2023-04-23T05:52:08;99601.92;;;13.43;76.01
32873;BME280;19224;52.462;16.898;2023-04-23T05:54:40;99608.06;;;13.52;75.94
32873;BME280;19224;52.462;16.898;2023-04-23T05:57:11;99605.72;;;13.60;75.70
32873;BME280;19224;52.462;16.898;2023-04-23T05:59:42;99601.82;;;13.64;75.82
32873;BME280;19224;52.462;16.898;2023-04-23T06:02:12;99603.13;;;13.78;74.59
32873;BME280;19224;52.462;16.898;2023-04-23T06:04:42;99601.90;;;13.89;73.73
32873;BME280;19224;52.462;16.898;2023-04-23T06:07:12;99596.61;;;14.00;73.05
32873;BME280;19224;52.462;16.898;2023-04-23T06:09:43;99594.33;;;14.07;72.70
32873;BME280;19224;52.462;16.898;2023-04-23T06:12:13;99595.46;;;14.10;72.96
32873;BME280;19224;52.462;16.898;2023-04-23T06:14:44;99594.16;;;14.22;72.22
32873;BME280;19224;52.462;16.898;2023-04-23T06:17:14;99592.50;;;14.32;72.42
32873;BME280;19224;52.462;16.898;2023-04-23T06:19:45;99596.20;;;14.43;72.17
32873;BME280;19224;52.462;16.898;2023-04-23T06:22:15;99597.37;;;14.52;71.65
32873;BME280;19224;52.462;16.898;2023-04-23T06:24:45;99592.27;;;14.60;72.46
32873;BME280;19224;52.462;16.898;2023-04-23T06:27:16;99594.33;;;14.69;71.76
32873;BME280;19224;52.462;16.898;2023-04-23T06:29:46;99598.67;;;14.77;71.82
32873;BME280;19224;52.462;16.898;2023-04-23T06:32:17;99595.30;;;14.86;72.28
32873;BME280;19224;52.462;16.898;2023-04-23T06:34:48;99600.05;;;14.95;71.82
32873;BME280;19224;52.462;16.898;2023-04-23T06:37:19;99597.14;;;15.03;71.58
32873;BME280;19224;52.462;16.898;2023-04-23T06:39:49;99592.54;;;15.11;71.10
32873;BME280;19224;52.462;16.898;2023-04-23T06:42:20;99591.08;;;15.18;71.28
32873;BME280;19224;52.462;16.898;2023-04-23T06:44:50;99593.48;;;15.28;71.01
32873;BME280;19224;52.462;16.898;2023-04-23T06:47:20;99585.67;;;15.36;71.73
32873;BME280;19224;52.462;16.898;2023-04-23T06:49:50;99582.03;;;15.48;71.17
32873;BME280;19224;52.462;16.898;2023-04-23T06:52:21;99580.22;;;15.59;70.39
32873;BME280;19224;52.462;16.898;2023-04-23T06:54:51;99584.70;;;15.71;70.18
32873;BME280;19224;52.462;16.898;2023-04-23T06:57:21;99584.37;;;15.81;71.11
32873;BME280;19224;52.462;16.898;2023-04-23T06:59:51;99574.16;;;15.90;70.74
32873;BME280;19224;52.462;16.898;2023-04-23T07:02:21;99574.45;;;16.04;69.89
32873;BME280;19224;52.462;16.898;2023-04-23T07:04:52;99569.66;;;16.13;68.28
32873;BME280;19224;52.462;16.898;2023-04-23T07:07:22;99577.83;;;16.24;67.36
32873;BME280;19224;52.462;16.898;2023-04-23T07:09:52;99570.42;;;16.31;66.68
32873;BME280;19224;52.462;16.898;2023-04-23T07:12:23;99576.16;;;16.45;67.82
32873;BME280;19224;52.462;16.898;2023-04-23T07:14:53;99576.16;;;16.56;67.33
32873;BME280;19224;52.462;16.898;2023-04-23T07:17:24;99574.80;;;16.67;67.24
32873;BME280;19224;52.462;16.898;2023-04-23T07:19:55;99570.72;;;16.78;66.98
32873;BME280;19224;52.462;16.898;2023-04-23T07:22:26;99570.30;;;16.88;66.46
32873;BME280;19224;52.462;16.898;2023-04-23T07:24:56;99563.64;;;16.92;65.07
32873;BME280;19224;52.462;16.898;2023-04-23T07:27:27;99556.69;;;16.98;66.21
32873;BME280;19224;52.462;16.898;2023-04-23T07:29:57;99562.37;;;17.06;64.58
32873;BME280;19224;52.462;16.898;2023-04-23T07:32:28;99557.64;;;17.14;64.89
32873;BME280;19224;52.462;16.898;2023-04-23T07:34:58;99562.08;;;17.20;64.68
32873;BME280;19224;52.462;16.898;2023-04-23T07:37:28;99551.42;;;17.28;64.95
32873;BME280;19224;52.462;16.898;2023-04-23T07:39:58;99557.50;;;17.37;63.80
32873;BME280;19224;52.462;16.898;2023-04-23T07:42:30;99550.04;;;17.45;63.12
32873;BME280;19224;52.462;16.898;2023-04-23T07:45:01;99551.98;;;17.54;62.04
32873;BME280;19224;52.462;16.898;2023-04-23T07:47:32;99551.21;;;17.63;63.50
32873;BME280;19224;52.462;16.898;2023-04-23T07:50:07;99553.00;;;17.73;62.42
32873;BME280;19224;52.462;16.898;2023-04-23T07:52:37;99548.02;;;17.84;62.17
32873;BME280;19224;52.462;16.898;2023-04-23T07:55:09;99547.44;;;17.95;61.67
32873;BME280;19224;52.462;16.898;2023-04-23T07:57:39;99535.37;;;18.03;61.26
32873;BME280;19224;52.462;16.898;2023-04-23T08:00:11;99539.75;;;18.15;59.50
32873;BME280;19224;52.462;16.898;2023-04-23T08:02:42;99537.48;;;18.20;57.89
32873;BME280;19224;52.462;16.898;2023-04-23T08:05:12;99535.95;;;18.27;58.43
32873;BME280;19224;52.462;16.898;2023-04-23T08:07:42;99534.30;;;18.36;58.51
32873;BME280;19224;52.462;16.898;2023-04-23T08:10:12;99529.63;;;18.47;58.49
32873;BME280;19224;52.462;16.898;2023-04-23T08:12:44;99533.63;;;18.58;58.64
32873;BME280;19224;52.462;16.898;2023-04-23T08:15:14;99532.89;;;18.71;58.85
32873;BME280;19224;52.462;16.898;2023-04-23T08:17:44;99522.41;;;18.76;57.77
32873;BME280;19224;52.462;16.898;2023-04-23T08:20:15;99534.22;;;18.86;57.50
32873;BME280;19224;52.462;16.898;2023-04-23T08:22:46;99521.11;;;18.95;56.78
32873;BME280;19224;52.462;16.898;2023-04-23T08:25:18;99526.09;;;19.05;56.26
32873;BME280;19224;52.462;16.898;2023-04-23T08:27:52;99520.93;;;19.12;54.33
32873;BME280;19224;52.462;16.898;2023-04-23T08:30:22;99523.99;;;19.18;53.60
32873;BME280;19224;52.462;16.898;2023-04-23T08:32:53;99522.56;;;19.24;54.29
32873;BME280;19224;52.462;16.898;2023-04-23T08:35:24;99515.67;;;19.29;55.26
32873;BME280;19224;52.462;16.898;2023-04-23T08:37:55;99517.07;;;19.39;54.95
32873;BME280;19224;52.462;16.898;2023-04-23T08:40:28;99516.77;;;19.51;54.24
32873;BME280;19224;52.462;16.898;2023-04-23T08:43:16;99510.39;;;19.56;53.21
32873;BME280;19224;52.462;16.898;2023-04-23T08:45:47;99505.40;;;19.65;52.04
32873;BME280;19224;52.462;16.898;2023-04-23T08:48:18;99506.50;;;19.68;51.50
32873;BME280;19224;52.462;16.898;2023-04-23T08:50:49;99497.70;;;19.74;52.19
32873;BME280;19224;52.462;16.898;2023-04-23T08:53:19;99504.68;;;19.82;52.05
32873;BME280;19224;52.462;16.898;2023-04-23T08:55:52;99496.53;;;19.86;49.66
32873;BME280;19224;52.462;16.898;2023-04-23T08:58:24;99489.44;;;19.89;49.22
32873;BME280;19224;52.462;16.898;2023-04-23T09:00:56;99493.45;;;19.94;50.91
32873;BME280;19224;52.462;16.898;2023-04-23T09:03:26;99483.94;;;19.98;50.48
32873;BME280;19224;52.462;16.898;2023-04-23T09:05:57;99476.25;;;20.07;51.56
32873;BME280;19224;52.462;16.898;2023-04-23T09:08:29;99479.96;;;20.16;50.45
32873;BME280;19224;52.462;16.898;2023-04-23T09:11:01;99478.46;;;20.31;50.33
32873;BME280;19224;52.462;16.898;2023-04-23T09:13:35;99475.84;;;20.39;48.37
32873;BME280;19224;52.462;16.898;2023-04-23T09:16:05;99476.46;;;20.46;48.05
32873;BME280;19224;52.462;16.898;2023-04-23T09:18:36;99474.90;;;20.57;48.31
32873;BME280;19224;52.462;16.898;2023-04-23T09:21:06;99470.10;;;20.69;48.56
32873;BME280;19224;52.462;16.898;2023-04-23T09:23:38;99470.49;;;20.74;45.72
32873;BME280;19224;52.462;16.898;2023-04-23T09:26:09;99459.80;;;20.80;45.94
32873;BME280;19224;52.462;16.898;2023-04-23T09:28:41;99469.72;;;20.91;46.90
32873;BME280;19224;52.462;16.898;2023-04-23T09:31:11;99463.97;;;20.98;46.94
32873;BME280;19224;52.462;16.898;2023-04-23T09:33:41;99458.84;;;20.99;45.16
32873;BME280;19224;52.462;16.898;2023-04-23T09:36:14;99459.64;;;21.09;46.49
32873;BME280;19224;52.462;16.898;2023-04-23T09:38:45;99454.25;;;21.17;44.85
32873;BME280;19224;52.462;16.898;2023-04-23T09:41:26;99447.30;;;21.22;44.16
32873;BME280;19224;52.462;16.898;2023-04-23T09:44:03;99444.09;;;21.27;43.65
32873;BME280;19224;52.462;16.898;2023-04-23T09:46:43;99444.55;;;21.40;43.67
32873;BME280;19224;52.462;16.898;2023-04-23T09:49:14;99440.88;;;21.49;42.36
32873;BME280;19224;52.462;16.898;2023-04-23T09:51:47;99441.03;;;21.65;44.16
32873;BME280;19224;52.462;16.898;2023-04-23T09:54:22;99434.82;;;21.80;44.03
32873;BME280;19224;52.462;16.898;2023-04-23T09:56:54;99429.62;;;21.95;42.99
32873;BME280;19224;52.462;16.898;2023-04-23T09:59:28;99429.73;;;22.11;43.07
32873;BME280;19224;52.462;16.898;2023-04-23T10:02:03;99429.77;;;22.18;41.62
32873;BME280;19224;52.462;16.898;2023-04-23T10:04:34;99425.70;;;22.22;41.31
32873;BME280;19224;52.462;16.898;2023-04-23T10:07:07;99417.81;;;22.27;40.58
32873;BME280;19224;52.462;16.898;2023-04-23T10:09:39;99423.50;;;22.30;40.08
32873;BME280;19224;52.462;16.898;2023-04-23T10:12:10;99416.54;;;22.39;40.87
32873;BME280;19224;52.462;16.898;2023-04-23T10:14:42;99419.19;;;22.53;39.89
32873;BME280;19224;52.462;16.898;2023-04-23T10:17:16;99418.20;;;22.70;38.61
32873;BME280;19224;52.462;16.898;2023-04-23T10:19:48;99424.27;;;22.81;39.09
32873;BME280;19224;52.462;16.898;2023-04-23T10:22:20;99420.84;;;22.79;38.53
32873;BME280;19224;52.462;16.898;2023-04-23T10:24:53;99423.62;;;22.91;39.40
32873;BME280;19224;52.462;16.898;2023-04-23T10:27:29;99419.53;;;23.03;38.76
32873;BME280;19224;52.462;16.898;2023-04-23T10:30:00;99423.65;;;22.99;37.40
32873;BME280;19224;52.462;16.898;2023-04-23T10:32:34;99415.03;;;22.90;38.16
32873;BME280;19224;52.462;16.898;2023-04-23T10:35:05;99426.36;;;22.95;38.75
32873;BME280;19224;52.462;16.898;2023-04-23T10:37:37;99425.20;;;23.10;39.44
32873;BME280;19224;52.462;16.898;2023-04-23T10:40:28;99413.23;;;23.19;39.45
32873;BME280;19224;52.462;16.898;2023-04-23T10:42:43;99412.02;;;23.17;39.02
32873;BME280;19224;52.462;16.898;2023-04-23T10:45:20;99418.39;;;23.18;37.36
32873;BME280;19224;52.462;16.898;2023-04-23T10:47:52;99422.67;;;23.16;36.55
32873;BME280;19224;52.462;16.898;2023-04-23T10:50:28;99420.55;;;23.10;36.31
32873;BME280;19224;52.462;16.898;2023-04-23T10:53:00;99417.86;;;23.18;36.76
32873;BME280;19224;52.462;16.898;2023-04-23T10:55:32;99420.14;;;23.39;37.69
32873;BME280;19224;52.462;16.898;2023-04-23T10:58:05;99422.52;;;23.38;36.06
32873;BME280;19224;52.462;16.898;2023-04-23T11:00:46;99420.30;;;23.49;37.34
32873;BME280;19224;52.462;16.898;2023-04-23T11:03:38;99421.02;;;23.55;35.99
32873;BME280;19224;52.462;16.898;2023-04-23T11:09:36;99415.51;;;23.67;37.58
32873;BME280;19224;52.462;16.898;2023-04-23T11:12:30;99422.37;;;23.79;38.99
32873;BME280;19224;52.462;16.898;2023-04-23T11:15:11;99416.17;;;23.81;38.58
32873;BME280;19224;52.462;16.898;2023-04-23T11:20:26;99420.66;;;23.78;36.84
32873;BME280;19224;52.462;16.898;2023-04-23T11:22:59;99415.16;;;23.86;36.69
32873;BME280;19224;52.462;16.898;2023-04-23T11:25:31;99427.69;;;23.69;35.52
32873;BME280;19224;52.462;16.898;2023-04-23T11:28:05;99418.09;;;23.61;37.33
32873;BME280;19224;52.462;16.898;2023-04-23T11:30:36;99417.03;;;23.70;37.83
32873;BME280;19224;52.462;16.898;2023-04-23T11:33:07;99418.27;;;23.55;38.65
32873;BME280;19224;52.462;16.898;2023-04-23T11:35:41;99417.89;;;23.38;37.98
32873;BME280;19224;52.462;16.898;2023-04-23T11:38:13;99422.33;;;23.15;38.35
32873;BME280;19224;52.462;16.898;2023-04-23T11:40:45;99412.84;;;23.06;39.24
32873;BME280;19224;52.462;16.898;2023-04-23T11:43:20;99408.48;;;22.87;39.88
32873;BME280;19224;52.462;16.898;2023-04-23T11:45:50;99417.44;;;22.89;40.37
32873;BME280;19224;52.462;16.898;2023-04-23T11:48:21;99418.28;;;22.90;41.21
32873;BME280;19224;52.462;16.898;2023-04-23T11:50:52;99413.97;;;22.83;41.11
32873;BME280;19224;52.462;16.898;2023-04-23T11:53:23;99418.20;;;22.70;41.78
32873;BME280;19224;52.462;16.898;2023-04-23T11:55:54;99415.46;;;22.70;42.09
32873;BME280;19224;52.462;16.898;2023-04-23T11:58:24;99413.02;;;22.59;43.13
32873;BME280;19224;52.462;16.898;2023-04-23T12:00:58;99423.55;;;22.71;44.54
32873;BME280;19224;52.462;16.898;2023-04-23T12:03:29;99417.86;;;22.69;44.82
32873;BME280;19224;52.462;16.898;2023-04-23T12:06:00;99424.38;;;22.68;44.65
32873;BME280;19224;52.462;16.898;2023-04-23T12:08:34;99425.72;;;22.60;45.39
32873;BME280;19224;52.462;16.898;2023-04-23T12:11:06;99420.41;;;22.58;45.61
32873;BME280;19224;52.462;16.898;2023-04-23T12:13:39;99420.45;;;22.66;45.65
32873;BME280;19224;52.462;16.898;2023-04-23T12:16:11;99418.36;;;22.64;46.20
32873;BME280;19224;52.462;16.898;2023-04-23T12:18:41;99421.18;;;22.80;46.21
32873;BME280;19224;52.462;16.898;2023-04-23T12:21:14;99422.90;;;22.81;45.94
32873;BME280;19224;52.462;16.898;2023-04-23T12:23:50;99423.39;;;22.77;46.31
32873;BME280;19224;52.462;16.898;2023-04-23T12:26:20;99425.56;;;22.61;46.88
32873;BME280;19224;52.462;16.898;2023-04-23T12:28:58;99429.63;;;22.53;48.42
32873;BME280;19224;52.462;16.898;2023-04-23T12:31:29;99427.92;;;22.52;49.47
32873;BME280;19224;52.462;16.898;2023-04-23T12:34:06;99441.24;;;22.39;51.16
32873;BME280;19224;52.462;16.898;2023-04-23T12:36:38;99440.71;;;22.11;51.54
32873;BME280;19224;52.462;16.898;2023-04-23T12:39:27;99434.12;;;22.00;52.04
32873;BME280;19224;52.462;16.898;2023-04-23T12:42:01;99441.15;;;22.02;51.28
32873;BME280;19224;52.462;16.898;2023-04-23T12:44:36;99430.36;;;22.01;50.62
32873;BME280;19224;52.462;16.898;2023-04-23T12:47:09;99441.95;;;21.95;50.31
32873;BME280;19224;52.462;16.898;2023-04-23T12:49:40;99427.78;;;22.03;50.72
32873;BME280;19224;52.462;16.898;2023-04-23T12:52:12;99444.42;;;22.02;51.02
32873;BME280;19224;52.462;16.898;2023-04-23T12:54:42;99443.00;;;21.98;51.56
32873;BME280;19224;52.462;16.898;2023-04-23T12:57:13;99439.13;;;21.83;52.25
32873;BME280;19224;52.462;16.898;2023-04-23T12:59:43;99441.33;;;21.79;52.88
32873;BME280;19224;52.462;16.898;2023-04-23T13:02:14;99439.41;;;21.76;53.18
32873;BME280;19224;52.462;16.898;2023-04-23T13:04:44;99429.77;;;21.68;53.58
32873;BME280;19224;52.462;16.898;2023-04-23T13:07:15;99431.38;;;21.61;54.01
32873;BME280;19224;52.462;16.898;2023-04-23T13:09:45;99438.58;;;21.62;54.58
32873;BME280;19224;52.462;16.898;2023-04-23T13:12:15;99436.08;;;21.64;55.51
32873;BME280;19224;52.462;16.898;2023-04-23T13:14:46;99441.38;;;21.66;54.60
32873;BME280;19224;52.462;16.898;2023-04-23T13:17:16;99447.48;;;21.60;54.69